sensor_id;sensor_type;location;lat;lon;timestamp;P1;durP1;ratioP1;P2;durP2;ratioP2
74810;SDS011;63340;48.404;-4.506;2023-01-29T00:00:50;26.00;;;22.75;;
74810;SDS011;63340;48.404;-4.506;2023-01-29T00:03:15;20.25;;;19.75;;
74810;SDS011;63340;48.404;-4.506;2023-01-29T00:05:40;22.25;;;22.00;;
74810;SDS011;63340;48.404;-4.506;2023-01-29T00:08:06;20.00;;;20.00;;
74810;SDS011;63340;48.404;-4.506;2023-01-29T00:10:31;23.75;;;23.00;;
74810;SDS011;63340;48.404;-4.506;2023-01-29T00:12:57;18.75;;;18.75;;
74810;SDS011;63340;48.404;-4.506;2023-01-29T00:15:22;20.50;;;17.25;;
74810;SDS011;63340;48.404;-4.506;2023-01-29T00:17:48;18.00;;;17.50;;
74810;SDS011;63340;48.404;-4.506;2023-01-29T00:20:13;20.75;;;19.75;;
74810;SDS011;63340;48.404;-4.506;2023-01-29T00:22:39;14.25;;;13.25;;
74810;SDS011;63340;48.404;-4.506;2023-01-29T00:25:05;16.00;;;14.50;;
74810;SDS011;63340;48.404;-4.506;2023-01-29T00:27:30;18.25;;;17.00;;
74810;SDS011;63340;48.404;-4.506;2023-01-29T00:29:56;20.50;;;19.50;;
74810;SDS011;63340;48.404;-4.506;2023-01-29T00:32:36;19.75;;;17.25;;
74810;SDS011;63340;48.404;-4.506;2023-01-29T00:35:02;17.50;;;15.25;;
74810;SDS011;63340;48.404;-4.506;2023-01-29T00:37:29;18.75;;;18.50;;
74810;SDS011;63340;48.404;-4.506;2023-01-29T00:39:54;19.75;;;18.25;;
74810;SDS011;63340;48.404;-4.506;2023-01-29T00:42:20;18.50;;;18.50;;
74810;SDS011;63340;48.404;-4.506;2023-01-29T00:45:04;13.00;;;13.00;;
74810;SDS011;63340;48.404;-4.506;2023-01-29T00:47:30;19.25;;;17.50;;
74810;SDS011;63340;48.404;-4.506;2023-01-29T00:49:57;13.50;;;13.50;;
74810;SDS011;63340;48.404;-4.506;2023-01-29T00:52:23;21.00;;;20.00;;
74810;SDS011;63340;48.404;-4.506;2023-01-29T00:54:52;15.00;;;13.75;;
74810;SDS011;63340;48.404;-4.506;2023-01-29T00:57:19;18.25;;;17.25;;
74810;SDS011;63340;48.404;-4.506;2023-01-29T00:59:45;10.75;;;10.00;;
74810;SDS011;63340;48.404;-4.506;2023-01-29T01:02:11;18.25;;;18.25;;
74810;SDS011;63340;48.404;-4.506;2023-01-29T01:04:55;17.00;;;14.75;;
74810;SDS011;63340;48.404;-4.506;2023-01-29T01:07:21;16.50;;;16.00;;
74810;SDS011;63340;48.404;-4.506;2023-01-29T01:09:46;15.50;;;15.25;;
74810;SDS011;63340;48.404;-4.506;2023-01-29T01:12:30;17.00;;;17.00;;
74810;SDS011;63340;48.404;-4.506;2023-01-29T01:14:56;15.00;;;14.25;;
74810;SDS011;63340;48.404;-4.506;2023-01-29T01:17:22;16.75;;;16.75;;
74810;SDS011;63340;48.404;-4.506;2023-01-29T01:19:47;14.75;;;14.75;;
74810;SDS011;63340;48.404;-4.506;2023-01-29T01:22:13;16.00;;;14.00;;
74810;SDS011;63340;48.404;-4.506;2023-01-29T01:24:38;17.75;;;15.25;;
74810;SDS011;63340;48.404;-4.506;2023-01-29T01:27:04;13.25;;;13.25;;
74810;SDS011;63340;48.404;-4.506;2023-01-29T01:29:30;15.75;;;14.25;;
74810;SDS011;63340;48.404;-4.506;2023-01-29T01:31:55;15.25;;;15.25;;
74810;SDS011;63340;48.404;-4.506;2023-01-29T01:34:21;14.75;;;14.75;;
74810;SDS011;63340;48.404;-4.506;2023-01-29T01:36:47;15.00;;;15.00;;
74810;SDS011;63340;48.404;-4.506;2023-01-29T01:39:13;19.00;;;18.00;;
74810;SDS011;63340;48.404;-4.506;2023-01-29T01:41:38;16.75;;;16.75;;
74810;SDS011;63340;48.404;-4.506;2023-01-29T01:44:04;20.25;;;18.25;;
74810;SDS011;63340;48.404;-4.506;2023-01-29T01:46:31;21.75;;;21.25;;
74810;SDS011;63340;48.404;-4.506;2023-01-29T01:49:09;19.75;;;19.00;;
74810;SDS011;63340;48.404;-4.506;2023-01-29T01:51:41;23.25;;;22.75;;
74810;SDS011;63340;48.404;-4.506;2023-01-29T01:54:17;20.75;;;20.50;;
74810;SDS011;63340;48.404;-4.506;2023-01-29T01:56:56;25.00;;;20.25;;
74810;SDS011;63340;48.404;-4.506;2023-01-29T01:59:33;23.00;;;19.75;;
74810;SDS011;63340;48.404;-4.506;2023-01-29T02:02:01;20.75;;;20.25;;
74810;SDS011;63340;48.404;-4.506;2023-01-29T02:04:46;20.25;;;18.75;;
74810;SDS011;63340;48.404;-4.506;2023-01-29T02:07:32;19.50;;;18.00;;
74810;SDS011;63340;48.404;-4.506;2023-01-29T02:10:16;22.25;;;21.50;;
74810;SDS011;63340;48.404;-4.506;2023-01-29T02:12:42;21.50;;;18.25;;
74810;SDS011;63340;48.404;-4.506;2023-01-29T02:15:09;17.75;;;16.75;;
74810;SDS011;63340;48.404;-4.506;2023-01-29T02:17:35;21.00;;;20.50;;
74810;SDS011;63340;48.404;-4.506;2023-01-29T02:28:45;19.75;;;19.75;;
74810;SDS011;63340;48.404;-4.506;2023-01-29T02:42:20;20.75;;;18.75;;
74810;SDS011;63340;48.404;-4.506;2023-01-29T02:44:54;15.25;;;15.25;;
74810;SDS011;63340;48.404;-4.506;2023-01-29T02:47:24;22.00;;;19.75;;
74810;SDS011;63340;48.404;-4.506;2023-01-29T02:52:36;15.75;;;14.75;;
74810;SDS011;63340;48.404;-4.506;2023-01-29T02:55:35;22.00;;;21.00;;
74810;SDS011;63340;48.404;-4.506;2023-01-29T02:58:10;23.00;;;21.50;;
74810;SDS011;63340;48.404;-4.506;2023-01-29T03:01:06;19.75;;;19.25;;
74810;SDS011;63340;48.404;-4.506;2023-01-29T03:03:52;18.00;;;17.75;;
74810;SDS011;63340;48.404;-4.506;2023-01-29T03:06:26;17.00;;;16.50;;
74810;SDS011;63340;48.404;-4.506;2023-01-29T03:09:00;18.50;;;18.50;;
74810;SDS011;63340;48.404;-4.506;2023-01-29T03:11:39;19.75;;;18.00;;
74810;SDS011;63340;48.404;-4.506;2023-01-29T03:14:10;20.75;;;19.75;;
74810;SDS011;63340;48.404;-4.506;2023-01-29T03:16:46;18.75;;;17.75;;
74810;SDS011;63340;48.404;-4.506;2023-01-29T03:22:05;18.00;;;18.00;;
74810;SDS011;63340;48.404;-4.506;2023-01-29T03:24:34;22.00;;;19.25;;
74810;SDS011;63340;48.404;-4.506;2023-01-29T03:27:31;18.50;;;18.25;;
74810;SDS011;63340;48.404;-4.506;2023-01-29T03:30:19;16.50;;;16.50;;
74810;SDS011;63340;48.404;-4.506;2023-01-29T03:33:09;17.50;;;17.00;;
74810;SDS011;63340;48.404;-4.506;2023-01-29T03:35:37;17.50;;;16.00;;
74810;SDS011;63340;48.404;-4.506;2023-01-29T03:38:09;20.50;;;20.00;;
74810;SDS011;63340;48.404;-4.506;2023-01-29T03:40:45;24.75;;;24.00;;
74810;SDS011;63340;48.404;-4.506;2023-01-29T03:43:27;24.50;;;24.50;;
74810;SDS011;63340;48.404;-4.506;2023-01-29T03:51:00;20.33;;;17.00;;
74810;SDS011;63340;48.404;-4.506;2023-01-29T03:53:30;20.75;;;20.25;;
74810;SDS011;63340;48.404;-4.506;2023-01-29T04:01:38;20.00;;;18.00;;
74810;SDS011;63340;48.404;-4.506;2023-01-29T04:06:48;19.00;;;19.00;;
74810;SDS011;63340;48.404;-4.506;2023-01-29T04:09:30;20.00;;;19.25;;
74810;SDS011;63340;48.404;-4.506;2023-01-29T04:12:09;21.50;;;20.25;;
74810;SDS011;63340;48.404;-4.506;2023-01-29T04:14:37;20.00;;;19.50;;
74810;SDS011;63340;48.404;-4.506;2023-01-29T04:17:06;18.75;;;18.50;;
74810;SDS011;63340;48.404;-4.506;2023-01-29T04:19:36;17.75;;;17.75;;
74810;SDS011;63340;48.404;-4.506;2023-01-29T04:22:05;21.00;;;19.75;;
74810;SDS011;63340;48.404;-4.506;2023-01-29T04:24:36;17.25;;;17.00;;
74810;SDS011;63340;48.404;-4.506;2023-01-29T04:41:31;16.25;;;14.75;;
74810;SDS011;63340;48.404;-4.506;2023-01-29T04:46:46;21.25;;;20.50;;
74810;SDS011;63340;48.404;-4.506;2023-01-29T04:54:50;19.25;;;17.75;;
74810;SDS011;63340;48.404;-4.506;2023-01-29T04:57:32;21.50;;;18.25;;
74810;SDS011;63340;48.404;-4.506;2023-01-29T05:00:20;17.75;;;17.75;;
74810;SDS011;63340;48.404;-4.506;2023-01-29T05:02:52;19.75;;;17.75;;
74810;SDS011;63340;48.404;-4.506;2023-01-29T05:05:19;15.25;;;14.00;;
74810;SDS011;63340;48.404;-4.506;2023-01-29T05:07:45;18.50;;;18.00;;
74810;SDS011;63340;48.404;-4.506;2023-01-29T05:10:12;20.00;;;20.00;;
74810;SDS011;63340;48.404;-4.506;2023-01-29T05:12:39;20.00;;;19.50;;
74810;SDS011;63340;48.404;-4.506;2023-01-29T05:15:09;13.50;;;13.50;;
74810;SDS011;63340;48.404;-4.506;2023-01-29T05:17:38;17.00;;;17.00;;
74810;SDS011;63340;48.404;-4.506;2023-01-29T05:20:04;16.00;;;15.00;;
74810;SDS011;63340;48.404;-4.506;2023-01-29T05:22:33;20.00;;;18.50;;
74810;SDS011;63340;48.404;-4.506;2023-01-29T05:25:02;16.25;;;15.25;;
74810;SDS011;63340;48.404;-4.506;2023-01-29T05:27:31;15.25;;;14.75;;
74810;SDS011;63340;48.404;-4.506;2023-01-29T05:30:18;17.75;;;13.75;;
74810;SDS011;63340;48.404;-4.506;2023-01-29T05:32:43;18.75;;;17.75;;
74810;SDS011;63340;48.404;-4.506;2023-01-29T05:35:09;19.75;;;18.25;;
74810;SDS011;63340;48.404;-4.506;2023-01-29T05:37:34;13.25;;;13.00;;
74810;SDS011;63340;48.404;-4.506;2023-01-29T05:40:00;16.00;;;14.00;;
74810;SDS011;63340;48.404;-4.506;2023-01-29T05:42:25;15.75;;;14.25;;
74810;SDS011;63340;48.404;-4.506;2023-01-29T05:44:50;14.00;;;13.00;;
74810;SDS011;63340;48.404;-4.506;2023-01-29T05:47:19;16.00;;;14.00;;
74810;SDS011;63340;48.404;-4.506;2023-01-29T05:49:44;18.00;;;17.25;;
74810;SDS011;63340;48.404;-4.506;2023-01-29T05:52:10;17.00;;;14.50;;
74810;SDS011;63340;48.404;-4.506;2023-01-29T05:54:38;13.75;;;13.75;;
74810;SDS011;63340;48.404;-4.506;2023-01-29T05:57:03;17.00;;;17.00;;
74810;SDS011;63340;48.404;-4.506;2023-01-29T05:59:29;18.25;;;17.75;;
74810;SDS011;63340;48.404;-4.506;2023-01-29T06:01:55;16.00;;;16.00;;
74810;SDS011;63340;48.404;-4.506;2023-01-29T06:04:24;11.75;;;11.25;;
74810;SDS011;63340;48.404;-4.506;2023-01-29T06:06:49;18.50;;;17.25;;
74810;SDS011;63340;48.404;-4.506;2023-01-29T06:09:14;17.00;;;16.00;;
74810;SDS011;63340;48.404;-4.506;2023-01-29T06:11:40;19.00;;;17.00;;
74810;SDS011;63340;48.404;-4.506;2023-01-29T06:14:05;18.00;;;17.25;;
74810;SDS011;63340;48.404;-4.506;2023-01-29T06:16:31;16.25;;;16.25;;
74810;SDS011;63340;48.404;-4.506;2023-01-29T06:18:56;13.75;;;11.50;;
74810;SDS011;63340;48.404;-4.506;2023-01-29T06:21:21;13.50;;;13.00;;
74810;SDS011;63340;48.404;-4.506;2023-01-29T06:23:47;16.75;;;16.75;;
74810;SDS011;63340;48.404;-4.506;2023-01-29T06:26:13;16.00;;;16.00;;
74810;SDS011;63340;48.404;-4.506;2023-01-29T06:28:39;13.75;;;12.75;;
74810;SDS011;63340;48.404;-4.506;2023-01-29T06:31:07;14.25;;;13.00;;
74810;SDS011;63340;48.404;-4.506;2023-01-29T06:33:33;15.50;;;15.25;;
74810;SDS011;63340;48.404;-4.506;2023-01-29T06:35:59;14.50;;;11.50;;
74810;SDS011;63340;48.404;-4.506;2023-01-29T06:38:26;13.25;;;13.25;;
74810;SDS011;63340;48.404;-4.506;2023-01-29T06:40:52;19.25;;;18.00;;
74810;SDS011;63340;48.404;-4.506;2023-01-29T06:43:26;18.00;;;14.75;;
74810;SDS011;63340;48.404;-4.506;2023-01-29T06:45:55;16.50;;;14.75;;
74810;SDS011;63340;48.404;-4.506;2023-01-29T06:48:22;14.25;;;14.25;;
74810;SDS011;63340;48.404;-4.506;2023-01-29T06:50:48;9.75;;;9.75;;
74810;SDS011;63340;48.404;-4.506;2023-01-29T06:53:15;14.00;;;13.00;;
74810;SDS011;63340;48.404;-4.506;2023-01-29T06:55:42;16.00;;;15.50;;
74810;SDS011;63340;48.404;-4.506;2023-01-29T06:58:09;16.00;;;16.00;;
74810;SDS011;63340;48.404;-4.506;2023-01-29T07:00:35;11.50;;;10.25;;
74810;SDS011;63340;48.404;-4.506;2023-01-29T07:03:04;12.00;;;12.00;;
74810;SDS011;63340;48.404;-4.506;2023-01-29T07:05:29;10.25;;;10.00;;
74810;SDS011;63340;48.404;-4.506;2023-01-29T07:07:55;14.25;;;13.75;;
74810;SDS011;63340;48.404;-4.506;2023-01-29T07:10:21;11.00;;;11.00;;
74810;SDS011;63340;48.404;-4.506;2023-01-29T07:12:47;12.25;;;12.25;;
74810;SDS011;63340;48.404;-4.506;2023-01-29T07:15:12;9.50;;;9.50;;
74810;SDS011;63340;48.404;-4.506;2023-01-29T07:17:38;12.50;;;12.50;;
74810;SDS011;63340;48.404;-4.506;2023-01-29T07:20:03;12.75;;;12.50;;
74810;SDS011;63340;48.404;-4.506;2023-01-29T07:22:30;14.25;;;13.50;;
74810;SDS011;63340;48.404;-4.506;2023-01-29T07:24:56;11.00;;;11.00;;
74810;SDS011;63340;48.404;-4.506;2023-01-29T07:27:22;12.75;;;11.00;;
74810;SDS011;63340;48.404;-4.506;2023-01-29T07:29:47;11.00;;;10.25;;
74810;SDS011;63340;48.404;-4.506;2023-01-29T07:32:12;13.00;;;13.00;;
74810;SDS011;63340;48.404;-4.506;2023-01-29T07:34:38;3.00;;;3.00;;
74810;SDS011;63340;48.404;-4.506;2023-01-29T07:37:05;18.75;;;17.25;;
74810;SDS011;63340;48.404;-4.506;2023-01-29T07:39:31;16.75;;;14.00;;
74810;SDS011;63340;48.404;-4.506;2023-01-29T07:41:56;17.50;;;17.50;;
74810;SDS011;63340;48.404;-4.506;2023-01-29T07:44:22;16.00;;;16.00;;
74810;SDS011;63340;48.404;-4.506;2023-01-29T07:46:47;14.25;;;13.75;;
74810;SDS011;63340;48.404;-4.506;2023-01-29T07:49:13;16.50;;;15.75;;
74810;SDS011;63340;48.404;-4.506;2023-01-29T07:51:39;18.75;;;18.50;;
74810;SDS011;63340;48.404;-4.506;2023-01-29T07:54:06;17.00;;;17.00;;
74810;SDS011;63340;48.404;-4.506;2023-01-29T07:56:32;17.75;;;17.75;;
74810;SDS011;63340;48.404;-4.506;2023-01-29T07:58:57;17.50;;;17.25;;
74810;SDS011;63340;48.404;-4.506;2023-01-29T08:01:23;11.75;;;11.25;;
74810;SDS011;63340;48.404;-4.506;2023-01-29T08:03:48;17.50;;;16.75;;
74810;SDS011;63340;48.404;-4.506;2023-01-29T08:06:14;16.50;;;15.75;;
74810;SDS011;63340;48.404;-4.506;2023-01-29T08:08:39;19.25;;;19.00;;
74810;SDS011;63340;48.404;-4.506;2023-01-29T08:11:04;13.00;;;13.00;;
74810;SDS011;63340;48.404;-4.506;2023-01-29T08:13:31;21.50;;;20.75;;
74810;SDS011;63340;48.404;-4.506;2023-01-29T08:16:00;20.25;;;20.25;;
74810;SDS011;63340;48.404;-4.506;2023-01-29T08:18:27;18.75;;;18.00;;
74810;SDS011;63340;48.404;-4.506;2023-01-29T08:20:57;20.00;;;19.25;;
74810;SDS011;63340;48.404;-4.506;2023-01-29T08:23:23;18.75;;;16.25;;
74810;SDS011;63340;48.404;-4.506;2023-01-29T08:25:48;18.75;;;18.75;;
74810;SDS011;63340;48.404;-4.506;2023-01-29T08:28:14;16.25;;;15.50;;
74810;SDS011;63340;48.404;-4.506;2023-01-29T08:30:39;23.50;;;22.50;;
74810;SDS011;63340;48.404;-4.506;2023-01-29T08:33:05;16.25;;;16.00;;
74810;SDS011;63340;48.404;-4.506;2023-01-29T08:35:30;20.50;;;19.25;;
74810;SDS011;63340;48.404;-4.506;2023-01-29T08:37:59;23.00;;;22.25;;
74810;SDS011;63340;48.404;-4.506;2023-01-29T08:40:27;18.00;;;16.75;;
74810;SDS011;63340;48.404;-4.506;2023-01-29T08:43:03;21.25;;;21.00;;
74810;SDS011;63340;48.404;-4.506;2023-01-29T08:45:29;21.00;;;18.75;;
74810;SDS011;63340;48.404;-4.506;2023-01-29T08:47:57;23.25;;;21.25;;
74810;SDS011;63340;48.404;-4.506;2023-01-29T08:50:22;19.00;;;17.25;;
74810;SDS011;63340;48.404;-4.506;2023-01-29T08:52:48;21.25;;;19.00;;
74810;SDS011;63340;48.404;-4.506;2023-01-29T08:55:13;18.25;;;18.00;;
74810;SDS011;63340;48.404;-4.506;2023-01-29T08:57:39;21.50;;;20.75;;
74810;SDS011;63340;48.404;-4.506;2023-01-29T09:00:05;15.50;;;14.75;;
74810;SDS011;63340;48.404;-4.506;2023-01-29T09:02:31;20.25;;;17.25;;
74810;SDS011;63340;48.404;-4.506;2023-01-29T09:04:57;22.00;;;18.75;;
74810;SDS011;63340;48.404;-4.506;2023-01-29T09:07:22;21.00;;;21.00;;
74810;SDS011;63340;48.404;-4.506;2023-01-29T09:09:47;22.25;;;19.25;;
74810;SDS011;63340;48.404;-4.506;2023-01-29T09:12:13;21.50;;;21.00;;
74810;SDS011;63340;48.404;-4.506;2023-01-29T09:14:38;22.25;;;20.75;;
74810;SDS011;63340;48.404;-4.506;2023-01-29T09:17:03;23.75;;;20.75;;
74810;SDS011;63340;48.404;-4.506;2023-01-29T09:19:29;23.75;;;21.25;;
74810;SDS011;63340;48.404;-4.506;2023-01-29T09:21:54;19.25;;;18.75;;
74810;SDS011;63340;48.404;-4.506;2023-01-29T09:24:20;19.50;;;19.50;;
74810;SDS011;63340;48.404;-4.506;2023-01-29T09:26:45;22.25;;;20.75;;
74810;SDS011;63340;48.404;-4.506;2023-01-29T09:29:10;25.00;;;21.00;;
74810;SDS011;63340;48.404;-4.506;2023-01-29T09:31:36;19.25;;;19.25;;
74810;SDS011;63340;48.404;-4.506;2023-01-29T09:34:01;16.25;;;16.25;;
74810;SDS011;63340;48.404;-4.506;2023-01-29T09:36:27;20.25;;;19.50;;
74810;SDS011;63340;48.404;-4.506;2023-01-29T09:38:52;20.75;;;20.50;;
74810;SDS011;63340;48.404;-4.506;2023-01-29T09:44:17;23.75;;;21.75;;
74810;SDS011;63340;48.404;-4.506;2023-01-29T09:46:53;19.25;;;18.75;;
74810;SDS011;63340;48.404;-4.506;2023-01-29T09:49:25;21.00;;;20.75;;
74810;SDS011;63340;48.404;-4.506;2023-01-29T09:52:05;25.00;;;24.50;;
74810;SDS011;63340;48.404;-4.506;2023-01-29T09:57:26;20.50;;;19.50;;
74810;SDS011;63340;48.404;-4.506;2023-01-29T09:59:58;23.25;;;22.25;;
74810;SDS011;63340;48.404;-4.506;2023-01-29T10:05:28;20.75;;;20.50;;
74810;SDS011;63340;48.404;-4.506;2023-01-29T10:08:12;25.25;;;24.75;;
74810;SDS011;63340;48.404;-4.506;2023-01-29T10:11:01;21.50;;;20.25;;
74810;SDS011;63340;48.404;-4.506;2023-01-29T10:13:43;19.75;;;19.75;;
74810;SDS011;63340;48.404;-4.506;2023-01-29T10:16:30;17.75;;;16.50;;
74810;SDS011;63340;48.404;-4.506;2023-01-29T10:27:02;13.25;;;13.00;;
74810;SDS011;63340;48.404;-4.506;2023-01-29T10:29:37;20.00;;;19.50;;
74810;SDS011;63340;48.404;-4.506;2023-01-29T10:32:07;18.00;;;18.00;;
74810;SDS011;63340;48.404;-4.506;2023-01-29T10:34:40;22.00;;;19.00;;
74810;SDS011;63340;48.404;-4.506;2023-01-29T10:37:15;17.75;;;17.50;;
74810;SDS011;63340;48.404;-4.506;2023-01-29T10:39:42;20.25;;;19.50;;
74810;SDS011;63340;48.404;-4.506;2023-01-29T10:44:49;19.25;;;18.50;;
74810;SDS011;63340;48.404;-4.506;2023-01-29T10:53:23;16.75;;;16.75;;
74810;SDS011;63340;48.404;-4.506;2023-01-29T11:01:14;11.75;;;11.75;;
74810;SDS011;63340;48.404;-4.506;2023-01-29T11:03:40;13.75;;;13.25;;
74810;SDS011;63340;48.404;-4.506;2023-01-29T11:06:14;15.50;;;14.75;;
74810;SDS011;63340;48.404;-4.506;2023-01-29T11:08:51;15.75;;;15.75;;
74810;SDS011;63340;48.404;-4.506;2023-01-29T11:11:38;12.00;;;12.00;;
74810;SDS011;63340;48.404;-4.506;2023-01-29T11:17:20;15.25;;;13.75;;
74810;SDS011;63340;48.404;-4.506;2023-01-29T11:19:48;14.75;;;14.50;;
74810;SDS011;63340;48.404;-4.506;2023-01-29T11:22:21;18.75;;;17.75;;
74810;SDS011;63340;48.404;-4.506;2023-01-29T11:25:07;15.00;;;15.00;;
74810;SDS011;63340;48.404;-4.506;2023-01-29T11:27:57;15.25;;;15.25;;
74810;SDS011;63340;48.404;-4.506;2023-01-29T11:33:06;16.50;;;14.00;;
74810;SDS011;63340;48.404;-4.506;2023-01-29T11:35:51;15.00;;;13.50;;
74810;SDS011;63340;48.404;-4.506;2023-01-29T11:38:29;12.50;;;11.00;;
74810;SDS011;63340;48.404;-4.506;2023-01-29T11:41:14;13.75;;;13.75;;
74810;SDS011;63340;48.404;-4.506;2023-01-29T11:43:42;7.00;;;7.00;;
74810;SDS011;63340;48.404;-4.506;2023-01-29T11:46:12;12.50;;;12.50;;
74810;SDS011;63340;48.404;-4.506;2023-01-29T11:51:06;11.75;;;11.75;;
74810;SDS011;63340;48.404;-4.506;2023-01-29T11:53:36;17.25;;;17.25;;
74810;SDS011;63340;48.404;-4.506;2023-01-29T11:56:27;12.25;;;12.25;;
74810;SDS011;63340;48.404;-4.506;2023-01-29T11:59:29;13.00;;;13.00;;
74810;SDS011;63340;48.404;-4.506;2023-01-29T12:02:22;14.50;;;12.50;;
74810;SDS011;63340;48.404;-4.506;2023-01-29T12:05:14;16.25;;;13.25;;
74810;SDS011;63340;48.404;-4.506;2023-01-29T12:07:42;13.25;;;13.25;;
74810;SDS011;63340;48.404;-4.506;2023-01-29T12:13:05;15.75;;;13.00;;
74810;SDS011;63340;48.404;-4.506;2023-01-29T12:15:34;12.50;;;12.25;;
74810;SDS011;63340;48.404;-4.506;2023-01-29T12:20:30;13.25;;;13.25;;
74810;SDS011;63340;48.404;-4.506;2023-01-29T12:23:13;18.00;;;17.25;;
74810;SDS011;63340;48.404;-4.506;2023-01-29T12:25:43;11.00;;;9.75;;
74810;SDS011;63340;48.404;-4.506;2023-01-29T12:28:35;14.00;;;13.00;;
74810;SDS011;63340;48.404;-4.506;2023-01-29T12:31:32;13.50;;;12.00;;
74810;SDS011;63340;48.404;-4.506;2023-01-29T12:34:48;15.25;;;13.00;;
74810;SDS011;63340;48.404;-4.506;2023-01-29T12:39:42;15.00;;;15.00;;
74810;SDS011;63340;48.404;-4.506;2023-01-29T12:42:18;16.25;;;15.50;;
74810;SDS011;63340;48.404;-4.506;2023-01-29T12:45:00;13.50;;;13.50;;
74810;SDS011;63340;48.404;-4.506;2023-01-29T12:47:37;10.25;;;10.00;;
74810;SDS011;63340;48.404;-4.506;2023-01-29T12:52:49;18.25;;;16.25;;
74810;SDS011;63340;48.404;-4.506;2023-01-29T12:55:17;11.25;;;11.25;;
74810;SDS011;63340;48.404;-4.506;2023-01-29T12:57:59;14.00;;;14.00;;
74810;SDS011;63340;48.404;-4.506;2023-01-29T13:00:28;18.00;;;17.50;;
74810;SDS011;63340;48.404;-4.506;2023-01-29T13:05:51;15.25;;;15.25;;
74810;SDS011;63340;48.404;-4.506;2023-01-29T13:08:24;14.50;;;14.00;;
74810;SDS011;63340;48.404;-4.506;2023-01-29T13:10:53;14.50;;;14.50;;
74810;SDS011;63340;48.404;-4.506;2023-01-29T13:15:45;14.67;;;14.67;;
74810;SDS011;63340;48.404;-4.506;2023-01-29T13:21:24;16.00;;;15.25;;
74810;SDS011;63340;48.404;-4.506;2023-01-29T13:23:52;12.00;;;11.00;;
74810;SDS011;63340;48.404;-4.506;2023-01-29T13:26:49;15.50;;;13.75;;
74810;SDS011;63340;48.404;-4.506;2023-01-29T13:29:24;14.25;;;14.25;;
74810;SDS011;63340;48.404;-4.506;2023-01-29T13:31:53;8.25;;;8.25;;
74810;SDS011;63340;48.404;-4.506;2023-01-29T13:34:24;15.50;;;12.75;;
74810;SDS011;63340;48.404;-4.506;2023-01-29T13:36:53;12.00;;;12.00;;
74810;SDS011;63340;48.404;-4.506;2023-01-29T13:39:25;14.50;;;14.50;;
74810;SDS011;63340;48.404;-4.506;2023-01-29T13:41:54;13.00;;;12.25;;
74810;SDS011;63340;48.404;-4.506;2023-01-29T13:44:25;12.75;;;11.75;;
74810;SDS011;63340;48.404;-4.506;2023-01-29T13:46:57;9.25;;;9.25;;
74810;SDS011;63340;48.404;-4.506;2023-01-29T13:51:58;10.50;;;9.50;;
74810;SDS011;63340;48.404;-4.506;2023-01-29T13:55:05;11.25;;;8.75;;
74810;SDS011;63340;48.404;-4.506;2023-01-29T14:00:47;13.00;;;12.00;;
74810;SDS011;63340;48.404;-4.506;2023-01-29T14:07:59;10.00;;;9.25;;
74810;SDS011;63340;48.404;-4.506;2023-01-29T14:11:26;8.50;;;7.50;;
74810;SDS011;63340;48.404;-4.506;2023-01-29T14:13:39;8.50;;;8.00;;
74810;SDS011;63340;48.404;-4.506;2023-01-29T14:18:47;7.50;;;7.50;;
74810;SDS011;63340;48.404;-4.506;2023-01-29T14:21:23;7.00;;;7.00;;
74810;SDS011;63340;48.404;-4.506;2023-01-29T14:23:54;7.75;;;7.75;;
74810;SDS011;63340;48.404;-4.506;2023-01-29T14:29:01;9.25;;;9.25;;
74810;SDS011;63340;48.404;-4.506;2023-01-29T14:31:38;6.50;;;6.50;;
74810;SDS011;63340;48.404;-4.506;2023-01-29T14:34:05;9.50;;;8.25;;
74810;SDS011;63340;48.404;-4.506;2023-01-29T14:36:52;5.00;;;5.00;;
74810;SDS011;63340;48.404;-4.506;2023-01-29T14:41:48;11.00;;;10.50;;
74810;SDS011;63340;48.404;-4.506;2023-01-29T14:47:19;6.50;;;6.50;;
74810;SDS011;63340;48.404;-4.506;2023-01-29T14:53:16;9.25;;;8.75;;
74810;SDS011;63340;48.404;-4.506;2023-01-29T14:58:33;6.75;;;6.00;;
74810;SDS011;63340;48.404;-4.506;2023-01-29T15:01:04;6.00;;;6.00;;
74810;SDS011;63340;48.404;-4.506;2023-01-29T15:03:46;4.00;;;4.00;;
74810;SDS011;63340;48.404;-4.506;2023-01-29T15:06:19;6.00;;;6.00;;
74810;SDS011;63340;48.404;-4.506;2023-01-29T15:08:54;7.50;;;6.75;;
74810;SDS011;63340;48.404;-4.506;2023-01-29T15:11:47;6.75;;;6.75;;
74810;SDS011;63340;48.404;-4.506;2023-01-29T15:14:25;10.50;;;8.75;;
74810;SDS011;63340;48.404;-4.506;2023-01-29T15:19:41;8.00;;;8.00;;
74810;SDS011;63340;48.404;-4.506;2023-01-29T15:22:19;8.75;;;7.00;;
74810;SDS011;63340;48.404;-4.506;2023-01-29T15:24:47;8.00;;;7.25;;
74810;SDS011;63340;48.404;-4.506;2023-01-29T15:27:26;5.75;;;5.75;;
74810;SDS011;63340;48.404;-4.506;2023-01-29T15:29:55;6.00;;;6.00;;
74810;SDS011;63340;48.404;-4.506;2023-01-29T15:32:27;5.75;;;5.75;;
74810;SDS011;63340;48.404;-4.506;2023-01-29T15:35:09;7.75;;;6.25;;
74810;SDS011;63340;48.404;-4.506;2023-01-29T15:43:22;7.75;;;6.25;;
74810;SDS011;63340;48.404;-4.506;2023-01-29T15:45:52;5.50;;;5.50;;
74810;SDS011;63340;48.404;-4.506;2023-01-29T15:48:41;7.75;;;7.00;;
74810;SDS011;63340;48.404;-4.506;2023-01-29T15:51:09;3.50;;;3.50;;
74810;SDS011;63340;48.404;-4.506;2023-01-29T15:53:41;6.25;;;5.75;;
74810;SDS011;63340;48.404;-4.506;2023-01-29T15:56:10;5.75;;;5.75;;
74810;SDS011;63340;48.404;-4.506;2023-01-29T15:58:36;6.00;;;6.00;;
74810;SDS011;63340;48.404;-4.506;2023-01-29T16:01:03;7.00;;;7.00;;
74810;SDS011;63340;48.404;-4.506;2023-01-29T16:03:30;6.75;;;6.75;;
74810;SDS011;63340;48.404;-4.506;2023-01-29T16:05:58;8.00;;;6.75;;
74810;SDS011;63340;48.404;-4.506;2023-01-29T16:08:25;6.50;;;6.25;;
74810;SDS011;63340;48.404;-4.506;2023-01-29T16:10:54;8.00;;;8.00;;
74810;SDS011;63340;48.404;-4.506;2023-01-29T16:13:29;8.50;;;7.75;;
74810;SDS011;63340;48.404;-4.506;2023-01-29T16:16:05;7.50;;;6.75;;
74810;SDS011;63340;48.404;-4.506;2023-01-29T16:18:42;11.50;;;7.50;;
74810;SDS011;63340;48.404;-4.506;2023-01-29T16:24:25;5.75;;;5.75;;
74810;SDS011;63340;48.404;-4.506;2023-01-29T16:27:02;5.00;;;5.00;;
74810;SDS011;63340;48.404;-4.506;2023-01-29T16:29:35;4.00;;;4.00;;
74810;SDS011;63340;48.404;-4.506;2023-01-29T16:32:00;4.00;;;3.75;;
74810;SDS011;63340;48.404;-4.506;2023-01-29T16:37:45;3.75;;;3.75;;
74810;SDS011;63340;48.404;-4.506;2023-01-29T16:39:56;4.25;;;4.25;;
74810;SDS011;63340;48.404;-4.506;2023-01-29T16:48:00;3.00;;;3.00;;
74810;SDS011;63340;48.404;-4.506;2023-01-29T16:50:46;6.00;;;6.00;;
74810;SDS011;63340;48.404;-4.506;2023-01-29T16:53:15;6.00;;;6.00;;
74810;SDS011;63340;48.404;-4.506;2023-01-29T16:55:45;4.50;;;4.50;;
74810;SDS011;63340;48.404;-4.506;2023-01-29T16:58:25;7.00;;;6.75;;
74810;SDS011;63340;48.404;-4.506;2023-01-29T17:01:13;6.25;;;6.25;;
74810;SDS011;63340;48.404;-4.506;2023-01-29T17:03:38;7.00;;;7.00;;
74810;SDS011;63340;48.404;-4.506;2023-01-29T17:06:11;7.00;;;7.00;;
74810;SDS011;63340;48.404;-4.506;2023-01-29T17:08:44;8.25;;;8.25;;
74810;SDS011;63340;48.404;-4.506;2023-01-29T17:11:11;5.00;;;5.00;;
74810;SDS011;63340;48.404;-4.506;2023-01-29T17:13:48;9.00;;;8.00;;
74810;SDS011;63340;48.404;-4.506;2023-01-29T17:18:51;8.25;;;8.00;;
74810;SDS011;63340;48.404;-4.506;2023-01-29T17:21:17;8.75;;;8.75;;
74810;SDS011;63340;48.404;-4.506;2023-01-29T17:23:42;7.00;;;7.00;;
74810;SDS011;63340;48.404;-4.506;2023-01-29T17:26:08;7.25;;;7.25;;